createdAt,value
2022-10-28T00:00:21.324Z,16.50
2022-10-28T00:04:24.323Z,16.50
2022-10-28T00:08:28.876Z,16.50
2022-10-28T00:12:31.729Z,16.40
2022-10-28T00:16:35.310Z,16.40
2022-10-28T00:20:38.134Z,16.40
2022-10-28T00:24:42.373Z,16.40
2022-10-28T00:28:46.295Z,16.40
2022-10-28T00:32:49.134Z,16.40
2022-10-28T00:36:52.050Z,16.40
2022-10-28T00:41:03.575Z,16.40
2022-10-28T00:45:06.938Z,16.40
2022-10-28T00:49:13.967Z,16.40
2022-10-28T00:53:18.195Z,16.40
2022-10-28T00:57:23.474Z,16.50
2022-10-28T01:01:26.417Z,16.50
2022-10-28T01:05:30.300Z,16.50
2022-10-28T01:09:33.188Z,16.50
2022-10-28T01:13:41.480Z,16.50
2022-10-28T01:17:51.456Z,16.60
2022-10-28T01:22:02.522Z,16.60
2022-10-28T01:26:22.951Z,16.60
2022-10-28T01:30:28.899Z,16.70
2022-10-28T01:34:37.125Z,16.70
2022-10-28T01:38:44.548Z,16.70
2022-10-28T01:42:52.240Z,16.70
2022-10-28T01:46:58.623Z,16.70
2022-10-28T01:51:05.675Z,16.70
2022-10-28T01:55:10.923Z,16.80
2022-10-28T01:59:15.662Z,16.80
2022-10-28T02:03:18.678Z,16.80
2022-10-28T02:07:22.880Z,16.70
2022-10-28T02:11:44.465Z,16.70
2022-10-28T02:15:48.516Z,16.70
2022-10-28T02:19:55.069Z,16.70
2022-10-28T02:24:03.156Z,16.70
2022-10-28T02:28:08.330Z,16.60
2022-10-28T02:32:15.216Z,16.70
2022-10-28T02:36:19.263Z,16.60
2022-10-28T02:40:25.878Z,16.70
2022-10-28T02:44:30.705Z,16.70
2022-10-28T02:48:36.330Z,16.60
2022-10-28T02:52:40.767Z,16.60
2022-10-28T02:56:50.399Z,16.70
2022-10-28T03:00:53.272Z,16.60
2022-10-28T03:04:56.168Z,16.60
2022-10-28T03:08:59.169Z,16.70
2022-10-28T03:13:03.383Z,16.70
2022-10-28T03:17:07.777Z,16.70
2022-10-28T03:21:10.599Z,16.80
2022-10-28T03:25:13.439Z,16.80
2022-10-28T03:29:17.669Z,16.80
2022-10-28T03:33:20.495Z,16.80
2022-10-28T03:37:23.356Z,16.80
2022-10-28T03:41:26.204Z,16.80
2022-10-28T03:49:33.132Z,16.80
2022-10-28T03:53:35.984Z,16.80
2022-10-28T03:57:39.008Z,16.80
2022-10-28T04:01:43.367Z,16.80
2022-10-28T04:05:48.340Z,16.90
2022-10-28T04:09:51.511Z,16.90
2022-10-28T04:13:54.379Z,16.90
2022-10-28T04:17:58.704Z,16.90
2022-10-28T04:22:01.577Z,16.90
2022-10-28T04:26:04.431Z,17.00
2022-10-28T04:30:07.980Z,17.00
2022-10-28T04:34:13.244Z,17.00
2022-10-28T04:38:16.616Z,17.10
2022-10-28T04:42:19.600Z,17.10
2022-10-28T04:46:22.490Z,17.20
2022-10-28T04:50:27.130Z,17.20
2022-10-28T04:54:29.983Z,17.20
2022-10-28T04:58:32.868Z,17.20
2022-10-28T05:02:35.714Z,17.30
2022-10-28T05:06:39.991Z,17.30
2022-10-28T05:10:42.959Z,17.30
2022-10-28T05:14:47.207Z,17.30
2022-10-28T05:18:51.820Z,17.30
2022-10-28T05:22:57.429Z,17.30
2022-10-28T05:27:00.854Z,17.30
2022-10-28T05:31:03.705Z,17.30
2022-10-28T05:35:08.072Z,17.30
2022-10-28T05:39:13.827Z,17.30
2022-10-28T05:43:16.736Z,17.30
2022-10-28T05:47:19.593Z,17.30
2022-10-28T05:51:22.419Z,17.30
2022-10-28T05:55:28.439Z,17.30
2022-10-28T05:59:31.926Z,17.20
2022-10-28T06:03:35.217Z,17.20
2022-10-28T06:07:38.696Z,17.20
2022-10-28T06:11:41.397Z,17.20
2022-10-28T06:15:44.238Z,17.10
2022-10-28T06:19:47.199Z,17.10
2022-10-28T06:23:50.520Z,17.10
2022-10-28T06:27:55.222Z,17.00
2022-10-28T06:31:58.489Z,17.00
2022-10-28T06:36:01.357Z,16.90
2022-10-28T06:40:04.745Z,16.90
2022-10-28T06:44:09.364Z,16.90
2022-10-28T06:48:13.850Z,16.90
2022-10-28T06:52:16.737Z,16.90
2022-10-28T06:56:19.583Z,17.00
2022-10-28T07:00:23.882Z,17.00
2022-10-28T07:04:26.786Z,17.10
2022-10-28T07:08:29.665Z,17.10
2022-10-28T07:12:32.716Z,17.10
2022-10-28T07:16:36.898Z,17.20
2022-10-28T07:20:39.763Z,17.20
2022-10-28T07:24:42.604Z,17.30
2022-10-28T07:28:45.458Z,17.30
2022-10-28T07:32:49.770Z,17.40
2022-10-28T07:36:52.765Z,17.40
2022-10-28T07:40:55.613Z,17.50
2022-10-28T07:44:58.464Z,17.70
2022-10-28T07:49:02.822Z,17.70
2022-10-28T07:53:05.772Z,17.80
2022-10-28T07:57:08.631Z,17.90
2022-10-28T08:01:14.528Z,18.00
2022-10-28T08:05:18.991Z,18.10
2022-10-28T08:09:21.896Z,18.10
2022-10-28T08:13:24.734Z,18.20
2022-10-28T08:17:27.577Z,18.30
2022-10-28T08:21:31.791Z,18.40
2022-10-28T08:25:34.682Z,18.60
2022-10-28T08:29:37.553Z,18.90
2022-10-28T08:33:42.269Z,19.40
2022-10-28T08:37:51.582Z,20.00
2022-10-28T08:42:00.366Z,20.70
2022-10-28T08:46:05.750Z,21.50
2022-10-28T08:50:12.950Z,22.30
2022-10-28T08:54:19.822Z,23.00
2022-10-28T08:58:24.743Z,23.70
2022-10-28T09:02:29.943Z,24.40
2022-10-28T09:06:32.794Z,25.00
2022-10-28T09:10:50.571Z,25.70
2022-10-28T09:15:01.327Z,26.30
2022-10-28T09:19:05.959Z,26.90
2022-10-28T09:23:12.223Z,27.30
2022-10-28T09:27:17.314Z,27.60
2022-10-28T09:31:26.247Z,27.90
2022-10-28T09:35:31.901Z,28.00
2022-10-28T09:39:38.318Z,28.20
2022-10-28T09:43:43.939Z,28.40
2022-10-28T09:47:52.718Z,28.70
2022-10-28T09:52:00.230Z,28.90
2022-10-28T09:56:03.801Z,29.00
2022-10-28T10:00:07.508Z,29.00
2022-10-28T10:04:18.405Z,29.20
2022-10-28T10:08:22.719Z,29.20
2022-10-28T10:12:27.903Z,29.30
2022-10-28T10:16:36.053Z,29.30
2022-10-28T10:20:48.778Z,29.60
2022-10-28T10:24:51.640Z,29.80
2022-10-28T10:29:00.586Z,29.90
2022-10-28T10:33:04.077Z,29.90
2022-10-28T10:37:18.255Z,30.10
2022-10-28T10:41:37.142Z,30.40
2022-10-28T10:45:44.604Z,30.80
2022-10-28T10:49:51.980Z,30.90
2022-10-28T10:53:59.566Z,30.90
2022-10-28T10:58:03.003Z,30.80
2022-10-28T11:02:19.466Z,30.70
2022-10-28T11:06:25.329Z,30.70
2022-10-28T11:10:30.946Z,30.80
2022-10-28T11:14:34.041Z,30.80
2022-10-28T11:18:43.642Z,31.00
2022-10-28T11:22:52.628Z,31.10
2022-10-28T11:27:01.381Z,31.50
2022-10-28T11:31:09.555Z,31.60
2022-10-28T11:35:30.987Z,31.60
2022-10-28T11:39:34.834Z,31.50
2022-10-28T11:43:49.758Z,31.50
2022-10-28T11:48:03.204Z,31.20
2022-10-28T11:52:11.663Z,31.00
2022-10-28T11:56:19.853Z,30.80
2022-10-28T12:00:28.647Z,30.80
2022-10-28T12:04:43.570Z,30.60
2022-10-28T12:08:55.093Z,30.40
2022-10-28T12:13:02.562Z,30.10
2022-10-28T12:17:13.055Z,29.90
2022-10-28T12:21:20.883Z,29.80
2022-10-28T12:25:40.454Z,29.90
2022-10-28T12:29:45.493Z,29.90
2022-10-28T12:33:51.238Z,29.70
2022-10-28T12:37:57.485Z,29.50
2022-10-28T12:42:04.093Z,29.20
2022-10-28T12:46:29.775Z,28.90
2022-10-28T12:50:39.037Z,28.60
2022-10-28T12:54:52.746Z,28.20
2022-10-28T12:59:00.437Z,27.90
2022-10-28T13:03:04.726Z,27.60
2022-10-28T13:07:19.887Z,27.40
2022-10-28T13:11:38.161Z,27.20
2022-10-28T13:15:50.079Z,27.00
2022-10-28T13:19:59.119Z,26.80
2022-10-28T13:24:07.569Z,26.60
2022-10-28T13:28:13.566Z,26.50
2022-10-28T13:32:37.329Z,26.30
2022-10-28T13:36:42.923Z,26.20
2022-10-28T13:41:03.637Z,26.00
2022-10-28T13:45:27.975Z,25.90
2022-10-28T13:49:32.570Z,25.80
2022-10-28T13:53:38.941Z,25.70
2022-10-28T13:57:44.283Z,25.60
2022-10-28T14:02:01.312Z,25.50
2022-10-28T14:06:06.739Z,25.40
2022-10-28T14:10:19.226Z,25.30
2022-10-28T14:14:43.617Z,25.20
2022-10-28T14:18:53.432Z,25.10
2022-10-28T14:22:57.706Z,25.10
2022-10-28T14:27:30.793Z,25.10
2022-10-28T14:31:34.902Z,25.10
2022-10-28T14:35:41.500Z,25.00
2022-10-28T14:39:51.046Z,25.00
2022-10-28T14:43:59.268Z,25.10
2022-10-28T14:48:21.552Z,24.90
2022-10-28T14:52:25.706Z,24.90
2022-10-28T14:56:30.633Z,24.80
2022-10-28T15:00:37.384Z,24.70
2022-10-28T15:04:41.343Z,24.60
2022-10-28T15:08:44.227Z,24.50
2022-10-28T15:12:50.056Z,24.40
2022-10-28T15:16:53.217Z,24.20
2022-10-28T15:21:08.617Z,24.10
2022-10-28T15:25:13.331Z,23.90
2022-10-28T15:29:17.642Z,23.80
2022-10-28T15:33:21.287Z,23.70
2022-10-28T15:37:25.276Z,23.60
2022-10-28T15:41:45.750Z,23.50
2022-10-28T15:45:50.072Z,23.40
2022-10-28T15:49:59.204Z,23.30
2022-10-28T15:54:11.182Z,23.20
2022-10-28T15:58:28.886Z,23.20
2022-10-28T16:02:42.462Z,23.10
2022-10-28T16:06:45.994Z,23.00
2022-10-28T16:10:50.890Z,22.90
2022-10-28T16:14:56.099Z,22.80
2022-10-28T16:19:03.335Z,22.70
2022-10-28T16:23:06.250Z,22.60
2022-10-28T16:27:20.047Z,22.50
2022-10-28T16:31:24.060Z,22.40
2022-10-28T16:35:29.319Z,22.30
2022-10-28T16:39:32.164Z,22.20
2022-10-28T16:43:36.312Z,22.10
2022-10-28T16:47:39.198Z,22.10
2022-10-28T16:51:44.838Z,22.00
2022-10-28T16:55:47.702Z,21.90
2022-10-28T16:59:50.658Z,21.80
2022-10-28T17:03:53.513Z,21.80
2022-10-28T17:07:58.895Z,21.70
2022-10-28T17:12:04.036Z,21.60
2022-10-28T17:16:07.218Z,21.60
2022-10-28T17:20:10.631Z,21.50
2022-10-28T17:24:14.823Z,21.40
2022-10-28T17:28:17.698Z,21.40
2022-10-28T17:32:20.534Z,21.30
2022-10-28T17:36:24.247Z,21.30
2022-10-28T17:40:28.550Z,21.30
2022-10-28T17:44:31.412Z,21.20
2022-10-28T17:48:34.285Z,21.10
2022-10-28T17:52:38.510Z,21.00
2022-10-28T17:56:42.886Z,21.00
2022-10-28T18:00:45.725Z,20.90
2022-10-28T18:04:48.539Z,20.90
2022-10-28T18:12:56.010Z,20.80
2022-10-28T18:16:59.217Z,20.70
2022-10-28T18:21:02.217Z,20.70
2022-10-28T18:25:05.423Z,20.60
2022-10-28T18:29:13.044Z,20.60
2022-10-28T18:37:19.071Z,20.50
2022-10-28T18:41:23.298Z,20.50
2022-10-28T18:45:27.523Z,20.50
2022-10-28T18:49:30.699Z,20.50
2022-10-28T18:53:35.848Z,20.40
2022-10-28T18:57:39.067Z,20.40
2022-10-28T19:01:46.802Z,20.40
2022-10-28T19:05:50.128Z,20.30
2022-10-28T19:09:53.038Z,20.30
2022-10-28T19:13:55.962Z,20.30
2022-10-28T19:18:00.193Z,20.20
2022-10-28T19:22:03.047Z,20.20
2022-10-28T19:26:06.825Z,20.20
2022-10-28T19:30:13.350Z,20.10
2022-10-28T19:34:19.070Z,20.10
2022-10-28T19:38:21.938Z,20.00
2022-10-28T19:42:25.841Z,20.00
2022-10-28T19:46:29.239Z,19.90
2022-10-28T19:50:33.458Z,19.90
2022-10-28T19:54:36.369Z,19.80
2022-10-28T19:58:39.242Z,19.70
2022-10-28T20:02:42.208Z,19.70
2022-10-28T20:06:46.514Z,19.70
2022-10-28T20:10:57.335Z,19.70
2022-10-28T20:15:00.181Z,19.70
2022-10-28T20:19:03.431Z,19.60
2022-10-28T20:23:07.650Z,19.70
2022-10-28T20:27:10.501Z,19.60
2022-10-28T20:31:14.025Z,19.60
2022-10-28T20:35:17.098Z,19.60
2022-10-28T20:39:22.242Z,19.60
2022-10-28T20:43:26.630Z,19.60
2022-10-28T20:47:29.502Z,19.60
2022-10-28T20:51:33.176Z,19.60
2022-10-28T20:55:37.516Z,19.50
2022-10-28T20:59:40.429Z,19.50
2022-10-28T21:03:43.614Z,19.50
2022-10-28T21:07:47.648Z,19.50
2022-10-28T21:11:51.920Z,19.50
2022-10-28T21:15:57.636Z,19.50
2022-10-28T21:24:05.485Z,19.50
2022-10-28T21:28:09.842Z,19.50
2022-10-28T21:32:13.247Z,19.50
2022-10-28T21:36:17.091Z,19.50
2022-10-28T21:40:20.034Z,19.40
2022-10-28T21:44:24.243Z,19.40
2022-10-28T21:48:27.694Z,19.40
2022-10-28T21:52:30.586Z,19.40
2022-10-28T21:56:33.496Z,19.30
2022-10-28T22:00:37.782Z,19.30
2022-10-28T22:04:40.714Z,19.30
2022-10-28T22:08:43.567Z,19.20
2022-10-28T22:12:46.461Z,19.20
2022-10-28T22:16:50.712Z,19.20
2022-10-28T22:20:53.601Z,19.10
2022-10-28T22:24:56.750Z,19.10
2022-10-28T22:29:00.252Z,19.10
2022-10-28T22:33:04.494Z,19.00
2022-10-28T22:37:07.356Z,19.00
2022-10-28T22:41:12.615Z,18.90
2022-10-28T22:45:15.526Z,18.90
2022-10-28T22:49:22.422Z,18.90
2022-10-28T22:53:25.536Z,18.90
2022-10-28T22:57:28.383Z,18.80
2022-10-28T23:01:31.348Z,18.80
2022-10-28T23:05:35.685Z,18.80
2022-10-28T23:09:38.520Z,18.80
2022-10-28T23:13:41.598Z,18.80
2022-10-28T23:17:48.829Z,18.80
2022-10-28T23:21:53.069Z,18.80
2022-10-28T23:25:57.225Z,18.80
2022-10-28T23:30:00.101Z,18.70
2022-10-28T23:38:09.104Z,18.60
2022-10-28T23:42:11.973Z,18.60
2022-10-28T23:46:14.832Z,18.50
2022-10-28T23:50:17.795Z,18.40
2022-10-28T23:54:22.100Z,18.40
2022-10-28T23:58:24.958Z,18.30
